createdAt,value
2022-08-30T00:01:27.195Z,64.86
2022-08-30T00:04:01.027Z,64.67
2022-08-30T00:06:32.677Z,65.06
2022-08-30T00:09:04.409Z,65.25
2022-08-30T00:11:36.004Z,65.32
2022-08-30T00:14:07.658Z,65.61
2022-08-30T00:16:39.212Z,65.57
2022-08-30T00:19:10.918Z,65.42
2022-08-30T00:21:42.505Z,65.60
2022-08-30T00:24:15.590Z,65.66
2022-08-30T00:26:47.153Z,65.78
2022-08-30T00:29:18.871Z,65.79
2022-08-30T00:31:50.481Z,65.48
2022-08-30T00:34:26.461Z,65.63
2022-08-30T00:36:59.241Z,65.95
2022-08-30T00:39:30.893Z,66.33
2022-08-30T00:42:02.465Z,66.85
2022-08-30T00:44:34.482Z,66.77
2022-08-30T00:47:09.408Z,66.23
2022-08-30T00:49:45.331Z,66.57
2022-08-30T00:52:18.686Z,66.79
2022-08-30T00:54:53.991Z,66.69
2022-08-30T00:57:25.613Z,66.87
2022-08-30T00:59:58.521Z,66.89
2022-08-30T01:02:31.269Z,67.30
2022-08-30T01:05:07.007Z,67.37
2022-08-30T01:07:39.619Z,67.51
2022-08-30T01:10:13.665Z,67.52
2022-08-30T01:12:46.371Z,67.76
2022-08-30T01:15:21.053Z,68.11
2022-08-30T01:17:53.270Z,67.92
2022-08-30T01:20:31.753Z,68.30
2022-08-30T01:23:15.575Z,68.49
2022-08-30T01:25:50.006Z,68.48
2022-08-30T01:28:27.289Z,68.50
2022-08-30T01:30:59.064Z,68.87
2022-08-30T01:33:31.593Z,69.08
2022-08-30T01:36:06.968Z,68.93
2022-08-30T01:38:45.534Z,69.01
2022-08-30T01:41:21.924Z,69.05
2022-08-30T01:43:56.522Z,68.97
2022-08-30T01:46:35.982Z,68.83
2022-08-30T01:49:16.332Z,69.45
2022-08-30T01:51:48.027Z,69.56
2022-08-30T01:54:22.563Z,69.69
2022-08-30T01:56:58.908Z,69.67
2022-08-30T01:59:30.872Z,69.25
2022-08-30T02:02:04.731Z,69.59
2022-08-30T02:04:36.806Z,69.40
2022-08-30T02:07:08.692Z,69.56
2022-08-30T02:09:40.383Z,68.88
2022-08-30T02:12:12.195Z,69.62
2022-08-30T02:14:44.358Z,69.45
2022-08-30T02:17:16.482Z,69.38
2022-08-30T02:19:48.031Z,69.50
2022-08-30T02:22:21.009Z,69.53
2022-08-30T02:24:52.610Z,69.66
2022-08-30T02:27:26.133Z,69.44
2022-08-30T02:29:57.732Z,69.29
2022-08-30T02:32:29.389Z,69.18
2022-08-30T02:35:00.969Z,69.22
2022-08-30T02:37:32.571Z,69.21
2022-08-30T02:40:07.467Z,69.05
2022-08-30T02:42:39.217Z,69.02
2022-08-30T02:45:11.372Z,69.06
2022-08-30T02:47:46.831Z,68.93
2022-08-30T02:50:18.857Z,68.82
2022-08-30T02:52:50.928Z,69.00
2022-08-30T02:55:23.254Z,69.02
2022-08-30T02:57:54.893Z,69.03
2022-08-30T03:00:26.497Z,68.94
2022-08-30T03:02:58.559Z,68.82
2022-08-30T03:05:32.993Z,68.94
2022-08-30T03:08:04.994Z,68.87
2022-08-30T03:10:38.340Z,68.88
2022-08-30T03:13:10.287Z,68.57
2022-08-30T03:15:42.901Z,68.97
2022-08-30T03:18:18.349Z,68.75
2022-08-30T03:20:54.409Z,68.82
2022-08-30T03:23:27.118Z,69.24
2022-08-30T03:25:58.719Z,69.07
2022-08-30T03:28:30.317Z,69.28
2022-08-30T03:31:01.957Z,69.57
2022-08-30T03:33:33.562Z,69.46
2022-08-30T03:36:05.596Z,69.27
2022-08-30T03:38:38.385Z,69.32
2022-08-30T03:41:12.854Z,69.04
2022-08-30T03:43:47.696Z,69.80
2022-08-30T03:46:19.625Z,69.91
2022-08-30T03:48:58.327Z,69.77
2022-08-30T03:51:30.223Z,69.75
2022-08-30T03:54:02.842Z,69.93
2022-08-30T03:56:34.442Z,69.96
2022-08-30T03:59:06.605Z,69.95
2022-08-30T04:01:38.395Z,69.73
2022-08-30T04:04:10.021Z,69.73
2022-08-30T04:06:41.748Z,69.54
2022-08-30T04:09:13.356Z,69.37
2022-08-30T04:11:44.913Z,69.17
2022-08-30T04:14:17.439Z,69.25
2022-08-30T04:16:49.690Z,69.52
2022-08-30T04:19:21.389Z,69.37
2022-08-30T04:21:52.954Z,69.32
2022-08-30T04:24:25.460Z,69.39
2022-08-30T04:26:57.054Z,69.35
2022-08-30T04:29:28.697Z,69.20
2022-08-30T04:32:00.378Z,69.43
2022-08-30T04:34:32.024Z,69.40
2022-08-30T04:37:03.655Z,69.45
2022-08-30T04:39:35.893Z,69.53
2022-08-30T04:42:07.741Z,70.05
2022-08-30T04:44:39.398Z,70.55
2022-08-30T04:47:10.989Z,70.50
2022-08-30T04:49:42.627Z,70.11
2022-08-30T04:52:14.469Z,69.86
2022-08-30T04:54:46.077Z,69.36
2022-08-30T04:57:17.649Z,68.91
2022-08-30T04:59:49.340Z,68.51
2022-08-30T05:02:21.698Z,67.65
2022-08-30T05:05:11.945Z,66.70
2022-08-30T05:07:46.139Z,66.43
2022-08-30T05:10:18.097Z,65.81
2022-08-30T05:12:50.418Z,65.48
2022-08-30T05:15:24.954Z,64.85
2022-08-30T05:17:56.432Z,64.48
2022-08-30T05:20:28.201Z,63.73
2022-08-30T05:22:59.800Z,63.66
2022-08-30T05:25:36.299Z,62.61
2022-08-30T05:28:09.303Z,62.37
2022-08-30T05:30:41.087Z,61.43
2022-08-30T05:33:15.618Z,60.46
2022-08-30T05:35:47.296Z,59.96
2022-08-30T05:38:18.903Z,59.22
2022-08-30T05:40:50.611Z,57.93
2022-08-30T05:43:27.832Z,57.38
2022-08-30T05:46:13.518Z,56.96
2022-08-30T05:48:46.607Z,55.54
2022-08-30T05:51:24.039Z,54.53
2022-08-30T05:53:57.887Z,53.32
2022-08-30T05:56:35.414Z,52.86
2022-08-30T05:59:08.889Z,52.42
2022-08-30T06:01:46.205Z,52.39
2022-08-30T06:04:17.887Z,51.99
2022-08-30T06:06:49.506Z,51.26
2022-08-30T06:09:21.258Z,49.61
2022-08-30T06:11:52.905Z,48.71
2022-08-30T06:14:25.254Z,48.61
2022-08-30T06:16:58.451Z,48.68
2022-08-30T06:19:30.185Z,48.05
2022-08-30T06:22:01.984Z,48.32
2022-08-30T06:24:54.010Z,48.17
2022-08-30T06:27:25.509Z,47.53
2022-08-30T06:29:57.125Z,46.47
2022-08-30T06:32:28.854Z,46.70
2022-08-30T06:35:00.721Z,46.21
2022-08-30T06:37:33.289Z,46.51
2022-08-30T06:40:05.423Z,46.44
2022-08-30T06:42:37.209Z,46.13
2022-08-30T06:45:10.869Z,46.64
2022-08-30T06:47:44.879Z,45.78
2022-08-30T06:50:17.703Z,43.81
2022-08-30T06:52:49.634Z,43.18
2022-08-30T06:55:21.292Z,41.85
2022-08-30T06:57:52.874Z,41.37
2022-08-30T07:00:24.499Z,40.27
2022-08-30T07:02:56.441Z,40.18
2022-08-30T07:05:28.668Z,38.98
2022-08-30T07:08:01.364Z,38.64
2022-08-30T07:10:32.952Z,38.65
2022-08-30T07:13:04.574Z,38.17
2022-08-30T07:15:38.457Z,36.89
2022-08-30T07:18:33.369Z,37.54
2022-08-30T07:21:10.916Z,37.92
2022-08-30T07:23:43.810Z,38.42
2022-08-30T07:26:18.941Z,38.79
2022-08-30T07:28:55.862Z,39.42
2022-08-30T07:31:28.885Z,40.20
2022-08-30T07:34:06.004Z,41.35
2022-08-30T07:36:38.964Z,42.69
2022-08-30T07:39:10.604Z,44.30
2022-08-30T07:41:42.190Z,44.43
2022-08-30T07:44:13.801Z,43.45
2022-08-30T07:46:45.476Z,43.28
2022-08-30T07:49:18.062Z,42.51
2022-08-30T07:51:49.640Z,42.21
2022-08-30T07:54:21.252Z,41.83
2022-08-30T07:56:55.698Z,42.58
2022-08-30T07:59:27.328Z,42.77
2022-08-30T08:01:58.989Z,43.14
2022-08-30T08:04:30.751Z,42.89
2022-08-30T08:07:02.648Z,43.49
2022-08-30T08:09:35.446Z,44.28
2022-08-30T08:12:08.029Z,45.43
2022-08-30T08:14:41.479Z,46.21
2022-08-30T08:17:13.124Z,47.49
2022-08-30T08:19:44.729Z,47.78
2022-08-30T08:22:23.457Z,48.25
2022-08-30T08:24:55.041Z,49.11
2022-08-30T08:27:26.913Z,49.78
2022-08-30T08:29:58.567Z,49.75
2022-08-30T08:32:30.130Z,49.96
2022-08-30T08:35:02.298Z,50.03
2022-08-30T08:37:33.872Z,50.19
2022-08-30T08:40:06.752Z,50.57
2022-08-30T08:42:51.538Z,51.16
2022-08-30T08:45:47.341Z,51.38
2022-08-30T08:48:51.905Z,52.21
2022-08-30T08:51:49.183Z,52.32
2022-08-30T08:54:38.831Z,52.19
2022-08-30T08:57:13.801Z,51.14
2022-08-30T08:59:48.435Z,51.01
2022-08-30T09:02:29.837Z,50.79
2022-08-30T09:05:03.064Z,51.20
2022-08-30T09:07:41.990Z,51.35
2022-08-30T09:10:13.601Z,51.31
2022-08-30T09:12:45.225Z,51.81
2022-08-30T09:15:18.102Z,52.47
2022-08-30T09:18:04.624Z,51.50
2022-08-30T09:20:41.382Z,50.32
2022-08-30T09:23:15.742Z,49.03
2022-08-30T09:25:59.276Z,48.46
2022-08-30T09:28:43.477Z,47.97
2022-08-30T09:31:24.596Z,48.12
2022-08-30T09:34:07.666Z,47.31
2022-08-30T09:36:51.401Z,47.00
2022-08-30T09:39:33.430Z,46.86
2022-08-30T09:42:31.402Z,45.90
2022-08-30T09:45:10.871Z,46.91
2022-08-30T09:47:43.504Z,46.60
2022-08-30T09:50:26.855Z,45.65
2022-08-30T09:53:23.737Z,44.87
2022-08-30T09:56:03.371Z,45.28
2022-08-30T09:58:50.547Z,45.76
2022-08-30T10:01:27.910Z,45.37
2022-08-30T10:04:06.698Z,45.49
2022-08-30T10:06:55.841Z,44.72
2022-08-30T10:09:48.603Z,43.68
2022-08-30T10:13:07.155Z,42.70
2022-08-30T10:15:45.696Z,42.73
2022-08-30T10:18:26.330Z,43.21
2022-08-30T10:21:13.519Z,43.75
2022-08-30T10:23:54.381Z,44.31
2022-08-30T10:26:38.837Z,44.11
2022-08-30T10:29:22.406Z,43.92
2022-08-30T10:32:01.098Z,44.24
2022-08-30T10:34:41.421Z,44.55
2022-08-30T10:37:16.776Z,44.00
2022-08-30T10:39:56.353Z,44.40
2022-08-30T10:42:39.413Z,44.20
2022-08-30T10:45:16.858Z,43.37
2022-08-30T10:47:57.639Z,43.75
2022-08-30T10:50:41.021Z,44.03
2022-08-30T10:53:24.681Z,44.27
2022-08-30T10:56:09.285Z,43.19
2022-08-30T10:58:41.914Z,43.73
2022-08-30T11:01:16.450Z,43.91
2022-08-30T11:04:09.722Z,41.78
2022-08-30T11:07:09.840Z,41.04
2022-08-30T11:10:02.845Z,41.89
2022-08-30T11:13:31.065Z,41.06
2022-08-30T11:16:09.180Z,40.37
2022-08-30T11:18:52.644Z,37.99
2022-08-30T11:21:43.333Z,38.73
2022-08-30T11:24:23.068Z,39.18
2022-08-30T11:26:58.750Z,40.52
2022-08-30T11:29:36.948Z,39.78
2022-08-30T11:32:17.154Z,39.04
2022-08-30T11:34:48.950Z,39.17
2022-08-30T11:37:37.190Z,38.82
2022-08-30T11:43:36.550Z,40.61
2022-08-30T11:46:27.159Z,41.84
2022-08-30T11:49:13.348Z,41.35
2022-08-30T11:52:27.655Z,41.17
2022-08-30T11:55:17.519Z,41.47
2022-08-30T11:58:00.048Z,41.38
2022-08-30T12:00:34.290Z,41.38
2022-08-30T12:03:32.771Z,41.55
2022-08-30T12:06:09.747Z,41.77
2022-08-30T12:08:55.164Z,41.72
2022-08-30T12:11:33.970Z,41.59
2022-08-30T12:14:09.376Z,42.15
2022-08-30T12:17:05.639Z,42.38
2022-08-30T12:19:38.617Z,42.93
2022-08-30T12:22:17.281Z,43.14
2022-08-30T12:24:52.884Z,43.11
2022-08-30T12:27:33.524Z,42.95
2022-08-30T12:30:08.457Z,42.69
2022-08-30T12:32:47.672Z,42.77
2022-08-30T12:35:28.133Z,43.06
2022-08-30T12:38:05.309Z,43.01
2022-08-30T12:40:37.034Z,42.69
2022-08-30T12:43:23.722Z,42.56
2022-08-30T12:46:00.975Z,42.05
2022-08-30T12:48:44.085Z,42.01
2022-08-30T12:51:30.042Z,41.79
2022-08-30T12:54:15.923Z,41.12
2022-08-30T12:56:54.364Z,41.64
2022-08-30T12:59:52.889Z,41.66
2022-08-30T13:02:43.604Z,40.31
2022-08-30T13:05:45.584Z,40.08
2022-08-30T13:08:35.805Z,37.32
2022-08-30T13:11:24.841Z,38.18
2022-08-30T13:14:32.454Z,37.98
2022-08-30T13:17:21.252Z,38.88
2022-08-30T13:20:07.183Z,37.54
2022-08-30T13:22:41.446Z,37.65
2022-08-30T13:25:13.693Z,37.43
2022-08-30T13:27:45.304Z,36.11
2022-08-30T13:30:16.988Z,35.47
2022-08-30T13:32:48.637Z,34.36
2022-08-30T13:35:20.330Z,35.01
2022-08-30T13:37:52.237Z,34.44
2022-08-30T13:40:23.969Z,33.78
2022-08-30T13:42:55.880Z,34.66
2022-08-30T13:45:45.693Z,33.83
2022-08-30T13:48:24.706Z,35.10
2022-08-30T13:50:57.061Z,36.36
2022-08-30T13:56:21.380Z,36.77
2022-08-30T13:58:53.076Z,37.29
2022-08-30T14:01:25.053Z,37.14
2022-08-30T14:09:40.191Z,36.99
2022-08-30T14:12:11.888Z,36.62
2022-08-30T14:14:44.688Z,36.62
2022-08-30T14:17:17.244Z,35.58
2022-08-30T14:19:50.168Z,36.20
2022-08-30T14:22:21.769Z,36.50
2022-08-30T14:24:54.287Z,37.13
2022-08-30T14:27:30.619Z,36.86
2022-08-30T14:30:05.210Z,36.96
2022-08-30T14:32:36.900Z,36.93
2022-08-30T14:35:09.351Z,36.05
2022-08-30T14:37:42.273Z,37.03
2022-08-30T14:40:15.252Z,36.35
2022-08-30T14:42:46.945Z,37.04
2022-08-30T14:45:18.994Z,36.87
2022-08-30T14:47:51.148Z,37.69
2022-08-30T14:50:22.830Z,36.88
2022-08-30T14:52:54.446Z,37.47
2022-08-30T14:55:28.692Z,37.13
2022-08-30T14:58:01.334Z,38.10
2022-08-30T15:00:33.631Z,38.20
2022-08-30T15:03:08.834Z,37.97
2022-08-30T15:05:40.505Z,37.10
2022-08-30T15:08:12.724Z,37.45
2022-08-30T15:10:45.212Z,37.85
2022-08-30T15:13:17.196Z,37.98
2022-08-30T15:15:49.087Z,38.14
2022-08-30T15:18:20.740Z,37.87
2022-08-30T15:20:53.654Z,38.57
2022-08-30T15:23:25.317Z,39.25
2022-08-30T15:25:56.995Z,39.31
2022-08-30T15:28:28.875Z,39.42
2022-08-30T15:31:03.030Z,39.24
2022-08-30T15:33:37.837Z,38.82
2022-08-30T15:36:09.906Z,39.07
2022-08-30T15:38:42.502Z,39.18
2022-08-30T15:41:15.571Z,39.34
2022-08-30T15:43:47.294Z,39.15
2022-08-30T15:46:28.292Z,39.69
2022-08-30T15:49:07.756Z,39.97
2022-08-30T15:51:41.400Z,39.81
2022-08-30T15:54:16.568Z,40.16
2022-08-30T15:56:48.292Z,39.94
2022-08-30T15:59:19.841Z,40.04
2022-08-30T16:01:51.623Z,40.11
2022-08-30T16:04:23.291Z,40.02
2022-08-30T16:06:57.833Z,40.15
2022-08-30T16:09:32.446Z,40.16
2022-08-30T16:12:05.592Z,40.65
2022-08-30T16:14:37.953Z,40.36
2022-08-30T16:17:09.643Z,40.92
2022-08-30T16:19:41.266Z,40.91
2022-08-30T16:22:12.854Z,41.52
2022-08-30T16:24:47.507Z,41.73
2022-08-30T16:27:19.181Z,42.30
2022-08-30T16:29:52.868Z,41.98
2022-08-30T16:32:25.746Z,42.27
2022-08-30T16:34:57.343Z,42.73
2022-08-30T16:37:29.133Z,43.07
2022-08-30T16:40:01.592Z,43.10
2022-08-30T16:42:33.586Z,43.11
2022-08-30T16:45:10.519Z,42.91
2022-08-30T16:47:42.669Z,43.36
2022-08-30T16:50:18.416Z,43.56
2022-08-30T16:52:50.411Z,44.07
2022-08-30T16:55:24.102Z,44.02
2022-08-30T16:57:56.415Z,44.59
2022-08-30T17:00:28.395Z,44.89
2022-08-30T17:03:00.495Z,44.73
2022-08-30T17:05:32.570Z,44.97
2022-08-30T17:08:04.887Z,45.31
2022-08-30T17:10:37.362Z,45.19
2022-08-30T17:13:09.964Z,45.55
2022-08-30T17:15:45.727Z,45.23
2022-08-30T17:18:18.877Z,45.42
2022-08-30T17:20:51.195Z,45.77
2022-08-30T17:23:24.118Z,45.95
2022-08-30T17:25:56.978Z,46.08
2022-08-30T17:28:28.950Z,45.92
2022-08-30T17:31:01.990Z,46.32
2022-08-30T17:33:38.902Z,46.10
2022-08-30T17:36:11.597Z,46.73
2022-08-30T17:38:45.158Z,46.47
2022-08-30T17:41:17.585Z,46.73
2022-08-30T17:43:49.248Z,46.45
2022-08-30T17:46:21.122Z,47.25
2022-08-30T17:49:01.050Z,47.30
2022-08-30T17:51:33.284Z,47.17
2022-08-30T17:54:05.040Z,47.19
2022-08-30T17:56:36.611Z,46.74
2022-08-30T17:59:10.031Z,47.24
2022-08-30T18:01:43.227Z,47.15
2022-08-30T18:04:19.711Z,47.29
2022-08-30T18:06:52.926Z,47.41
2022-08-30T18:09:24.839Z,47.71
2022-08-30T18:11:56.533Z,48.49
2022-08-30T18:14:28.331Z,48.38
2022-08-30T18:16:59.993Z,48.92
2022-08-30T18:19:34.568Z,48.18
2022-08-30T18:22:07.852Z,48.24
2022-08-30T18:24:39.641Z,48.47
2022-08-30T18:27:11.292Z,47.93
2022-08-30T18:29:45.339Z,47.57
2022-08-30T18:32:16.984Z,48.39
2022-08-30T18:34:49.329Z,48.09
2022-08-30T18:37:20.933Z,48.32
2022-08-30T18:39:59.937Z,48.00
2022-08-30T18:42:32.776Z,47.90
2022-08-30T18:45:08.554Z,47.91
2022-08-30T18:47:46.749Z,47.68
2022-08-30T18:50:18.737Z,47.80
2022-08-30T18:52:52.721Z,47.78
2022-08-30T18:55:53.982Z,47.97
2022-08-30T18:58:30.816Z,47.98
2022-08-30T19:01:04.842Z,48.10
2022-08-30T19:03:37.435Z,48.23
2022-08-30T19:06:11.866Z,48.08
2022-08-30T19:08:45.766Z,48.48
2022-08-30T19:11:19.730Z,48.20
2022-08-30T19:13:53.437Z,48.46
2022-08-30T19:16:27.578Z,48.39
2022-08-30T19:19:04.155Z,49.42
2022-08-30T19:21:35.983Z,49.01
2022-08-30T19:24:08.789Z,49.34
2022-08-30T19:26:42.606Z,50.26
2022-08-30T19:29:18.398Z,49.67
2022-08-30T19:31:51.710Z,49.99
2022-08-30T19:34:24.127Z,50.13
2022-08-30T19:36:55.972Z,49.63
2022-08-30T19:39:31.006Z,50.17
2022-08-30T19:42:02.832Z,50.32
2022-08-30T19:44:34.493Z,49.95
2022-08-30T19:47:06.429Z,50.09
2022-08-30T19:49:38.701Z,50.15
2022-08-30T19:52:10.360Z,50.78
2022-08-30T19:54:41.983Z,51.25
2022-08-30T19:57:14.219Z,51.69
2022-08-30T19:59:45.852Z,52.61
2022-08-30T20:02:18.001Z,52.21
2022-08-30T20:04:50.197Z,51.99
2022-08-30T20:07:25.247Z,52.73
2022-08-30T20:10:02.879Z,52.98
2022-08-30T20:12:39.940Z,53.34
2022-08-30T20:15:17.677Z,53.12
2022-08-30T20:18:14.545Z,53.26
2022-08-30T20:20:48.592Z,53.36
2022-08-30T20:23:24.167Z,53.26
2022-08-30T20:25:57.624Z,53.80
2022-08-30T20:28:30.018Z,53.83
2022-08-30T20:31:04.815Z,53.90
2022-08-30T20:33:38.248Z,53.79
2022-08-30T20:36:11.318Z,54.82
2022-08-30T20:38:43.644Z,54.74
2022-08-30T20:41:17.806Z,54.41
2022-08-30T20:43:49.939Z,54.60
2022-08-30T20:46:21.785Z,54.93
2022-08-30T20:48:54.010Z,54.47
2022-08-30T20:51:27.518Z,55.26
2022-08-30T20:53:59.343Z,54.92
2022-08-30T20:56:31.740Z,55.12
2022-08-30T20:59:04.960Z,54.87
2022-08-30T21:01:38.800Z,54.95
2022-08-30T21:04:12.618Z,55.01
2022-08-30T21:06:44.222Z,54.78
2022-08-30T21:09:15.870Z,54.67
2022-08-30T21:11:48.009Z,55.60
2022-08-30T21:14:21.800Z,55.42
2022-08-30T21:16:53.572Z,55.62
2022-08-30T21:19:25.401Z,55.82
2022-08-30T21:21:57.013Z,55.60
2022-08-30T21:24:31.381Z,55.66
2022-08-30T21:27:03.551Z,55.67
2022-08-30T21:29:35.158Z,56.03
2022-08-30T21:32:06.826Z,56.19
2022-08-30T21:34:58.515Z,56.23
2022-08-30T21:37:35.544Z,56.36
2022-08-30T21:40:08.450Z,56.35
2022-08-30T21:42:43.567Z,56.77
2022-08-30T21:45:15.338Z,56.66
2022-08-30T21:47:46.958Z,56.82
2022-08-30T21:50:19.941Z,56.71
2022-08-30T21:52:52.017Z,56.61
2022-08-30T21:55:26.081Z,57.06
2022-08-30T21:57:57.797Z,57.39
2022-08-30T22:00:29.724Z,57.36
2022-08-30T22:03:01.523Z,57.48
2022-08-30T22:05:33.234Z,57.93
2022-08-30T22:08:05.019Z,58.04
2022-08-30T22:10:36.721Z,57.95
2022-08-30T22:13:10.086Z,57.87
2022-08-30T22:15:42.352Z,58.29
2022-08-30T22:18:15.952Z,58.26
2022-08-30T22:20:49.570Z,58.11
2022-08-30T22:23:22.865Z,58.39
2022-08-30T22:25:54.532Z,58.49
2022-08-30T22:28:26.194Z,58.37
2022-08-30T22:31:01.594Z,58.58
2022-08-30T22:33:33.282Z,58.97
2022-08-30T22:36:10.089Z,58.98
2022-08-30T22:38:41.825Z,59.30
2022-08-30T22:41:17.384Z,59.52
2022-08-30T22:43:49.412Z,59.68
2022-08-30T22:46:24.058Z,59.81
2022-08-30T22:49:10.260Z,60.13
2022-08-30T22:51:41.969Z,60.05
2022-08-30T22:54:13.670Z,60.29
2022-08-30T22:56:45.274Z,60.27
2022-08-30T22:59:16.918Z,60.68
2022-08-30T23:01:48.580Z,60.73
2022-08-30T23:04:20.281Z,60.52
2022-08-30T23:06:51.883Z,60.37
2022-08-30T23:09:23.445Z,60.88
2022-08-30T23:11:55.828Z,60.78
2022-08-30T23:14:27.410Z,60.99
2022-08-30T23:16:59.091Z,60.68
2022-08-30T23:19:30.711Z,60.61
2022-08-30T23:22:02.324Z,60.47
2022-08-30T23:24:52.639Z,60.18
2022-08-30T23:27:42.966Z,60.14
2022-08-30T23:30:32.845Z,59.59
2022-08-30T23:33:26.086Z,59.53
2022-08-30T23:36:16.128Z,59.44
2022-08-30T23:39:06.486Z,59.28
2022-08-30T23:41:56.697Z,59.84
2022-08-30T23:44:46.954Z,59.59
2022-08-30T23:47:37.067Z,59.54
2022-08-30T23:50:27.386Z,58.86
2022-08-30T23:53:17.982Z,58.50
2022-08-30T23:56:08.180Z,58.50
2022-08-30T23:58:59.541Z,58.67
